Time;durP1;ratioP1;P1;durP2;ratioP2;P2;SDS_P1;SDS_P2;PMS_P1;PMS_P2;Temp;Humidity;BMP_temperature;BMP_pressure;BME280_temperature;BME280_humidity;BME280_pressure;Samples;Min_cycle;Max_cycle;Signal;HPM_P1;HPM_P2
2021/09/23 00:00:44;;;;;;;151.23;73.57;;;8.70;99.90;;;;;;5010586;28;20038;-69
2021/09/23 00:03:20;;;;;;;148.82;75.13;;;8.60;99.90;;;;;;5000229;28;20528;-70
2021/09/23 00:05:48;;;;;;;143.15;74.38;;;8.60;99.90;;;;;;4986003;28;20050;-70
2021/09/23 00:08:15;;;;;;;163.25;78.38;;;8.50;99.90;;;;;;5002554;28;20073;-69
2021/09/23 00:10:42;;;;;;;142.73;73.55;;;8.40;99.90;;;;;;5003701;23;20092;-66
2021/09/23 00:13:10;;;;;;;136.75;70.72;;;8.40;99.90;;;;;;5002463;28;20062;-63
2021/09/23 00:15:38;;;;;;;135.93;70.68;;;8.30;99.90;;;;;;4997073;28;20049;-67
2021/09/23 00:18:09;;;;;;;127.00;69.85;;;8.20;99.90;;;;;;4977953;28;20038;-65
2021/09/23 00:20:38;;;;;;;121.07;67.30;;;8.20;99.90;;;;;;4979285;28;20050;-67
2021/09/23 00:23:07;;;;;;;123.63;65.22;;;8.10;99.90;;;;;;4965977;28;20049;-67
2021/09/23 00:25:34;;;;;;;120.65;67.47;;;8.00;99.90;;;;;;4998363;28;20066;-69
2021/09/23 00:28:03;;;;;;;102.68;58.97;;;8.00;99.90;;;;;;4981747;28;20256;-67
2021/09/23 00:30:31;;;;;;;117.35;63.45;;;8.00;99.90;;;;;;4998634;28;20045;-68
2021/09/23 00:32:58;;;;;;;120.40;64.75;;;7.90;99.90;;;;;;4999332;28;20050;-69
2021/09/23 00:35:25;;;;;;;132.00;66.70;;;7.90;99.90;;;;;;4999056;28;20101;-67
2021/09/23 00:37:52;;;;;;;135.52;68.93;;;8.00;99.90;;;;;;5001207;28;20057;-67
2021/09/23 00:40:20;;;;;;;147.45;70.88;;;8.00;99.90;;;;;;5002236;28;20046;-67
2021/09/23 00:42:48;;;;;;;133.27;66.45;;;7.90;99.90;;;;;;5003889;28;20058;-69
2021/09/23 00:45:17;;;;;;;133.40;67.95;;;7.90;99.90;;;;;;4986606;28;20210;-67
2021/09/23 00:47:45;;;;;;;154.85;73.57;;;7.90;99.90;;;;;;4986125;28;20136;-69
2021/09/23 00:50:13;;;;;;;140.57;68.10;;;8.00;99.90;;;;;;4990411;28;20361;-68
2021/09/23 00:52:41;;;;;;;145.90;70.60;;;8.00;99.90;;;;;;4986450;28;20092;-68
2021/09/23 00:55:11;;;;;;;159.50;74.15;;;8.00;99.90;;;;;;5001923;28;20053;-68
2021/09/23 00:57:41;;;;;;;161.80;74.00;;;7.80;99.90;;;;;;4985763;28;20145;-68
2021/09/23 01:00:12;;;;;;;133.50;66.60;;;7.80;99.90;;;;;;4994450;28;20066;-68
2021/09/23 01:02:59;;;;;;;128.45;61.20;;;7.80;99.90;;;;;;4999590;28;20573;-68
2021/09/23 01:05:27;;;;;;;122.47;60.60;;;7.80;99.90;;;;;;4984826;28;20049;-69
2021/09/23 01:07:54;;;;;;;123.88;61.58;;;7.70;99.90;;;;;;5001677;28;20034;-69
2021/09/23 01:10:21;;;;;;;125.10;59.92;;;7.60;99.90;;;;;;4998669;28;20076;-68
2021/09/23 01:12:49;;;;;;;126.97;61.47;;;7.60;99.90;;;;;;5000754;28;20127;-67
2021/09/23 01:15:18;;;;;;;139.02;68.10;;;7.60;99.90;;;;;;4985331;28;20433;-67
2021/09/23 01:17:47;;;;;;;150.77;70.78;;;7.60;99.90;;;;;;4991311;28;20596;-68
2021/09/23 01:20:19;;;;;;;131.20;64.65;;;7.70;99.90;;;;;;5001469;28;20149;-68
2021/09/23 01:22:47;;;;;;;138.90;67.07;;;7.70;99.90;;;;;;5001825;28;20060;-68
2021/09/23 01:25:20;;;;;;;149.10;70.07;;;7.80;99.90;;;;;;5001348;28;20064;-68
2021/09/23 01:27:49;;;;;;;129.57;64.22;;;7.70;99.90;;;;;;5002177;28;20088;-69
2021/09/23 01:30:29;;;;;;;133.45;63.88;;;7.60;99.90;;;;;;4966920;28;20050;-68
2021/09/23 01:32:56;;;;;;;134.65;62.22;;;7.60;99.90;;;;;;4966302;28;20057;-68
2021/09/23 01:35:23;;;;;;;135.70;67.60;;;7.70;99.90;;;;;;4981897;28;20108;-68
2021/09/23 01:37:50;;;;;;;156.98;75.15;;;7.70;99.90;;;;;;4988016;28;20050;-67
2021/09/23 01:40:17;;;;;;;147.50;73.35;;;7.80;99.90;;;;;;4984298;28;20074;-68
2021/09/23 01:42:44;;;;;;;163.25;76.32;;;7.90;99.90;;;;;;5001759;28;20050;-68
2021/09/23 01:45:13;;;;;;;178.65;82.53;;;7.90;99.90;;;;;;4998429;28;20064;-68
2021/09/23 01:47:46;;;;;;;196.52;87.95;;;8.00;99.90;;;;;;4967388;28;20097;-68
2021/09/23 01:50:16;;;;;;;201.07;87.95;;;7.80;99.90;;;;;;4982925;28;20073;-68
2021/09/23 01:52:45;;;;;;;234.25;96.57;;;7.80;99.90;;;;;;4999699;28;20096;-68
2021/09/23 01:55:14;;;;;;;202.85;88.72;;;7.90;99.90;;;;;;5001519;28;20414;-68
2021/09/23 01:57:42;;;;;;;235.82;97.53;;;8.20;99.90;;;;;;4985841;28;20054;-68
2021/09/23 02:00:09;;;;;;;238.00;98.93;;;8.30;99.90;;;;;;4993269;28;20065;-68
2021/09/23 02:02:40;;;;;;;261.20;102.03;;;8.30;99.90;;;;;;5002740;28;20088;-68
2021/09/23 02:05:20;;;;;;;217.05;94.70;;;8.20;99.90;;;;;;5001100;28;20573;-68
2021/09/23 02:07:47;;;;;;;210.02;93.97;;;8.20;99.90;;;;;;4985465;28;20053;-68
2021/09/23 02:10:15;;;;;;;247.77;98.63;;;8.10;99.90;;;;;;4982868;28;20050;-68
2021/09/23 02:12:42;;;;;;;215.20;92.65;;;8.20;99.90;;;;;;5001595;28;20157;-68
2021/09/23 02:15:12;;;;;;;218.25;98.03;;;8.10;99.90;;;;;;5001501;28;20053;-68
2021/09/23 02:17:39;;;;;;;239.23;98.60;;;8.10;99.90;;;;;;4990609;28;20318;-67
2021/09/23 02:20:11;;;;;;;202.40;89.32;;;8.10;99.90;;;;;;4981076;28;20406;-68
2021/09/23 02:22:46;;;;;;;180.40;80.15;;;8.00;99.90;;;;;;4981591;28;20679;-68
2021/09/23 02:25:13;;;;;;;159.25;76.88;;;7.90;99.90;;;;;;4981106;28;20051;-68
2021/09/23 02:27:40;;;;;;;162.77;73.57;;;7.80;99.90;;;;;;4979407;28;20042;-68
2021/09/23 02:30:09;;;;;;;189.30;83.90;;;7.70;99.90;;;;;;4996984;28;20054;-68
2021/09/23 02:32:36;;;;;;;181.55;81.80;;;7.70;99.90;;;;;;5000950;28;20128;-67
2021/09/23 02:35:04;;;;;;;211.07;86.00;;;7.70;99.90;;;;;;5000647;28;20072;-68
2021/09/23 02:37:31;;;;;;;236.98;95.03;;;8.00;99.90;;;;;;4998999;28;20049;-68
2021/09/23 02:39:58;;;;;;;230.23;92.82;;;8.00;99.90;;;;;;4999971;28;20056;-67
2021/09/23 02:42:25;;;;;;;189.15;84.22;;;7.90;99.90;;;;;;4983162;28;20054;-69
2021/09/23 02:44:52;;;;;;;188.73;85.22;;;7.80;99.90;;;;;;4999843;28;20482;-67
2021/09/23 02:47:22;;;;;;;227.95;91.22;;;7.80;99.90;;;;;;4996779;28;20410;-67
2021/09/23 02:49:50;;;;;;;193.88;85.15;;;7.80;99.90;;;;;;4996266;28;20052;-68
2021/09/23 02:52:17;;;;;;;194.57;85.50;;;7.70;99.90;;;;;;4999285;28;20049;-67
2021/09/23 02:54:44;;;;;;;197.55;83.72;;;7.70;99.90;;;;;;4999089;28;20050;-68
2021/09/23 02:57:11;;;;;;;184.70;81.63;;;7.70;99.90;;;;;;4999330;28;20129;-68
2021/09/23 02:59:38;;;;;;;183.68;82.13;;;7.60;99.90;;;;;;4986378;28;20051;-68
2021/09/23 03:02:06;;;;;;;198.25;86.82;;;7.50;99.90;;;;;;4971971;28;20058;-69
2021/09/23 03:04:33;;;;;;;204.77;87.15;;;7.80;99.90;;;;;;4998596;28;20049;-68
2021/09/23 03:07:00;;;;;;;220.18;92.00;;;7.80;99.90;;;;;;4983358;28;20054;-70
2021/09/23 03:09:27;;;;;;;242.95;97.47;;;8.00;99.90;;;;;;4996950;28;20057;-66
2021/09/23 03:11:54;;;;;;;232.70;96.38;;;8.10;99.90;;;;;;4997202;28;20517;-68
2021/09/23 03:14:21;;;;;;;216.50;92.30;;;8.30;99.90;;;;;;4995922;28;20100;-68
2021/09/23 03:16:47;;;;;;;218.27;92.25;;;8.20;99.90;;;;;;4989790;28;20070;-67
2021/09/23 03:19:14;;;;;;;206.82;87.65;;;8.20;99.90;;;;;;4998563;28;20080;-68
2021/09/23 03:21:41;;;;;;;219.15;94.05;;;8.30;99.90;;;;;;4998359;28;20041;-67
2021/09/23 03:24:09;;;;;;;209.20;90.07;;;8.30;99.90;;;;;;4999435;28;20054;-67
2021/09/23 03:26:39;;;;;;;207.02;89.70;;;8.30;99.90;;;;;;4998235;28;20137;-68
2021/09/23 03:29:08;;;;;;;211.75;85.57;;;8.30;99.90;;;;;;4991099;28;20051;-67
2021/09/23 03:31:36;;;;;;;179.18;83.28;;;8.30;99.90;;;;;;4984792;28;20042;-67
2021/09/23 03:34:03;;;;;;;210.55;87.43;;;8.30;99.90;;;;;;4999181;28;20053;-67
2021/09/23 03:36:30;;;;;;;203.40;86.18;;;8.40;99.90;;;;;;5000207;28;20093;-67
2021/09/23 03:38:58;;;;;;;187.60;81.35;;;8.40;99.90;;;;;;4999688;28;20373;-70
2021/09/23 03:41:25;;;;;;;183.10;78.32;;;8.30;99.90;;;;;;4998080;28;20046;-70
2021/09/23 03:43:52;;;;;;;172.48;73.43;;;8.20;99.90;;;;;;4999516;28;20128;-69
2021/09/23 03:46:19;;;;;;;198.30;81.07;;;8.20;99.90;;;;;;4965062;28;20066;-70
2021/09/23 03:48:46;;;;;;;165.98;76.85;;;8.20;99.90;;;;;;4998314;28;20053;-67
2021/09/23 03:51:18;;;;;;;198.88;80.63;;;8.20;99.90;;;;;;4998419;28;20650;-69
2021/09/23 03:53:45;;;;;;;180.35;77.10;;;8.20;99.90;;;;;;4999038;28;20096;-70
2021/09/23 03:56:14;;;;;;;183.43;78.60;;;8.20;99.90;;;;;;4998165;28;20153;-67
2021/09/23 03:58:45;;;;;;;169.73;72.90;;;8.30;99.90;;;;;;4996049;28;20057;-69
2021/09/23 04:01:12;;;;;;;159.75;68.50;;;8.20;99.90;;;;;;4995601;28;20058;-68
2021/09/23 04:03:40;;;;;;;147.82;65.20;;;8.30;99.90;;;;;;4998497;28;20529;-67
2021/09/23 04:06:08;;;;;;;170.40;72.75;;;8.30;99.90;;;;;;4981549;28;20054;-67
2021/09/23 04:08:35;;;;;;;147.90;67.95;;;8.50;99.90;;;;;;4998171;28;20054;-67
2021/09/23 04:11:03;;;;;;;134.43;65.72;;;8.80;99.90;;;;;;4994192;28;20054;-70
2021/09/23 04:13:30;;;;;;;142.38;65.30;;;8.90;99.90;;;;;;4997660;28;20054;-69
2021/09/23 04:15:57;;;;;;;114.28;57.42;;;9.00;99.90;;;;;;4995331;28;20050;-67
2021/09/23 04:18:24;;;;;;;114.50;57.10;;;9.00;99.90;;;;;;4977636;28;20120;-68
2021/09/23 04:20:51;;;;;;;96.15;50.97;;;9.10;99.90;;;;;;4979282;28;20058;-68
2021/09/23 04:23:18;;;;;;;88.40;47.55;;;9.00;99.90;;;;;;4983789;28;20129;-68
2021/09/23 04:25:45;;;;;;;100.95;51.45;;;9.10;99.90;;;;;;4997495;28;20108;-68
2021/09/23 04:28:11;;;;;;;89.57;45.83;;;9.10;99.90;;;;;;4979912;28;20081;-68
2021/09/23 04:30:38;;;;;;;75.70;40.63;;;9.10;99.90;;;;;;4990947;28;20639;-68
2021/09/23 04:33:05;;;;;;;81.88;44.97;;;9.00;99.90;;;;;;4998028;28;20084;-68
2021/09/23 04:35:32;;;;;;;76.30;41.63;;;9.00;99.90;;;;;;5000008;28;20053;-70
2021/09/23 04:38:00;;;;;;;66.95;38.00;;;9.00;99.90;;;;;;4982135;28;20058;-68
2021/09/23 04:40:27;;;;;;;66.05;34.33;;;9.00;99.90;;;;;;4996778;28;20061;-68
2021/09/23 04:42:54;;;;;;;67.00;38.63;;;9.00;99.90;;;;;;4999123;28;20105;-67
2021/09/23 04:45:20;;;;;;;68.45;36.90;;;8.90;99.90;;;;;;4998129;28;20145;-67
2021/09/23 04:47:47;;;;;;;61.42;34.92;;;9.00;99.90;;;;;;4991490;28;20054;-67
2021/09/23 04:50:14;;;;;;;53.40;32.38;;;9.10;99.90;;;;;;4978743;28;20054;-68
2021/09/23 04:52:41;;;;;;;51.15;29.40;;;9.10;99.90;;;;;;4978320;28;20101;-68
2021/09/23 04:55:09;;;;;;;51.95;31.25;;;9.40;99.90;;;;;;4990231;28;20584;-67
2021/09/23 04:57:36;;;;;;;52.33;30.90;;;9.40;99.90;;;;;;4996847;28;20054;-67
2021/09/23 05:00:07;;;;;;;46.13;28.98;;;9.30;99.90;;;;;;4982391;28;20062;-67
2021/09/23 05:02:37;;;;;;;44.17;24.88;;;9.40;99.90;;;;;;4976695;28;20058;-68
2021/09/23 05:05:05;;;;;;;39.30;25.30;;;9.40;99.90;;;;;;4997298;28;20133;-68
2021/09/23 05:07:31;;;;;;;40.60;24.63;;;9.50;99.90;;;;;;4997079;28;20049;-68
2021/09/23 05:10:00;;;;;;;39.40;23.63;;;9.50;99.90;;;;;;4994409;28;20151;-68
2021/09/23 05:12:27;;;;;;;43.13;23.85;;;9.50;99.90;;;;;;4983952;28;20062;-68
2021/09/23 05:14:56;;;;;;;39.95;22.55;;;9.50;99.90;;;;;;4983087;28;20140;-68
2021/09/23 05:17:23;;;;;;;36.67;22.38;;;9.60;99.90;;;;;;4982562;28;20046;-68
2021/09/23 05:19:50;;;;;;;34.65;21.60;;;9.70;99.90;;;;;;4979329;28;20066;-68
2021/09/23 05:22:17;;;;;;;37.60;21.95;;;9.70;99.90;;;;;;4976310;28;20055;-68
2021/09/23 05:24:47;;;;;;;34.35;20.30;;;9.80;99.90;;;;;;4978642;28;20070;-68
2021/09/23 05:27:14;;;;;;;34.88;20.30;;;9.70;99.90;;;;;;4998342;28;20054;-68
2021/09/23 05:29:41;;;;;;;35.00;22.33;;;9.80;99.90;;;;;;4993512;28;20064;-68
2021/09/23 05:32:08;;;;;;;32.58;21.33;;;9.80;99.90;;;;;;5001062;28;20050;-68
2021/09/23 05:34:35;;;;;;;32.72;21.50;;;9.80;99.90;;;;;;5000951;28;20054;-68
2021/09/23 05:37:03;;;;;;;33.05;21.60;;;9.80;99.90;;;;;;4998375;28;20061;-68
2021/09/23 05:39:30;;;;;;;29.83;20.67;;;9.80;99.90;;;;;;5001822;28;20062;-69
2021/09/23 05:41:57;;;;;;;29.20;19.10;;;10.00;99.90;;;;;;4985237;28;20049;-68
2021/09/23 05:44:23;;;;;;;29.40;18.73;;;10.10;99.90;;;;;;5000808;28;20065;-68
2021/09/23 05:46:52;;;;;;;26.15;17.45;;;10.10;99.90;;;;;;4998838;28;20131;-67
2021/09/23 05:49:19;;;;;;;25.45;17.20;;;10.10;99.90;;;;;;4994064;28;20522;-68
2021/09/23 05:51:47;;;;;;;26.42;16.77;;;10.20;99.90;;;;;;5000569;28;20556;-68
2021/09/23 05:54:15;;;;;;;24.98;15.27;;;10.30;99.90;;;;;;5002222;28;20045;-70
2021/09/23 05:56:41;;;;;;;27.92;16.58;;;10.40;99.90;;;;;;4998239;28;20046;-67
2021/09/23 05:59:08;;;;;;;21.83;15.48;;;10.50;99.90;;;;;;4988851;28;20050;-68
2021/09/23 06:01:35;;;;;;;22.33;14.73;;;10.60;99.90;;;;;;4996352;28;20042;-68
2021/09/23 06:04:04;;;;;;;19.33;14.23;;;10.70;99.90;;;;;;5000951;28;20422;-68
2021/09/23 06:06:31;;;;;;;19.80;13.38;;;10.90;99.90;;;;;;4995264;28;20537;-67
2021/09/23 06:08:59;;;;;;;21.58;14.15;;;11.00;99.90;;;;;;4986019;28;20051;-68
2021/09/23 06:11:27;;;;;;;25.52;15.60;;;11.10;99.90;;;;;;4963781;28;20376;-67
2021/09/23 06:13:53;;;;;;;21.40;13.52;;;11.20;99.90;;;;;;4979612;28;20255;-67
2021/09/23 06:16:20;;;;;;;18.65;12.50;;;11.30;99.90;;;;;;4980332;28;20053;-67
2021/09/23 06:18:48;;;;;;;17.33;11.90;;;11.40;99.90;;;;;;4985652;28;20050;-67
2021/09/23 06:21:15;;;;;;;17.73;12.82;;;11.50;99.90;;;;;;5000521;28;20088;-68
2021/09/23 06:23:42;;;;;;;25.98;13.77;;;11.60;99.90;;;;;;5001039;28;20530;-67
2021/09/23 06:26:08;;;;;;;20.42;12.13;;;11.70;99.90;;;;;;5000946;28;20050;-68
2021/09/23 06:28:35;;;;;;;20.40;12.80;;;11.80;99.90;;;;;;4975413;28;20043;-67
2021/09/23 06:31:02;;;;;;;15.88;12.63;;;11.90;99.90;;;;;;4987882;28;20049;-67
2021/09/23 06:33:30;;;;;;;19.95;11.88;;;12.00;99.90;;;;;;5000975;28;20046;-67
2021/09/23 06:35:57;;;;;;;17.45;11.57;;;12.10;99.90;;;;;;4997889;28;20058;-67
2021/09/23 06:38:24;;;;;;;16.88;12.40;;;12.20;99.90;;;;;;4974554;28;20271;-67
2021/09/23 06:40:55;;;;;;;18.83;12.25;;;12.20;99.90;;;;;;4981897;28;20477;-67
2021/09/23 06:43:23;;;;;;;18.70;13.27;;;12.40;99.90;;;;;;4992590;28;20097;-67
2021/09/23 06:45:50;;;;;;;19.85;14.95;;;12.40;99.90;;;;;;4996796;28;20499;-67
2021/09/23 06:48:17;;;;;;;22.50;15.40;;;12.50;99.90;;;;;;4984433;28;20054;-67
2021/09/23 06:50:43;;;;;;;22.73;14.27;;;12.50;99.90;;;;;;4989459;28;20049;-67
2021/09/23 06:53:10;;;;;;;19.23;12.70;;;12.60;99.90;;;;;;5011351;28;20396;-67
2021/09/23 06:55:37;;;;;;;22.30;13.68;;;12.70;99.90;;;;;;5001536;28;20402;-69
2021/09/23 06:58:04;;;;;;;19.95;14.98;;;12.80;99.90;;;;;;4998952;28;20049;-67
2021/09/23 07:00:50;;;;;;;21.33;14.45;;;12.90;99.90;;;;;;4992376;28;20113;-70
2021/09/23 07:03:49;;;;;;;19.10;14.15;;;13.00;99.90;;;;;;4987613;28;20062;-67
2021/09/23 07:06:33;;;;;;;20.63;14.73;;;13.10;99.90;;;;;;4997967;28;20073;-68
2021/09/23 07:09:01;;;;;;;21.85;13.68;;;13.20;99.90;;;;;;5000177;28;20168;-68
2021/09/23 07:11:28;;;;;;;17.08;13.18;;;13.30;99.90;;;;;;4981848;28;20057;-67
2021/09/23 07:13:55;;;;;;;18.02;12.82;;;13.40;99.90;;;;;;4986185;28;20053;-68
2021/09/23 07:16:22;;;;;;;19.80;13.93;;;13.40;99.90;;;;;;4995965;28;20052;-68
2021/09/23 07:18:49;;;;;;;20.88;13.23;;;13.60;99.90;;;;;;5003930;28;20064;-68
2021/09/23 07:21:16;;;;;;;21.63;13.95;;;13.60;99.90;;;;;;4997977;28;20049;-67
2021/09/23 07:23:42;;;;;;;18.85;13.07;;;13.70;99.90;;;;;;4983109;28;20236;-68
2021/09/23 07:26:09;;;;;;;16.80;12.50;;;13.70;99.90;;;;;;4998274;28;20057;-67
2021/09/23 07:28:36;;;;;;;19.25;12.38;;;13.80;99.90;;;;;;4995160;28;20046;-68
2021/09/23 07:31:03;;;;;;;18.88;12.38;;;13.90;99.90;;;;;;4967070;28;20038;-68
2021/09/23 07:33:30;;;;;;;19.35;13.10;;;14.10;99.90;;;;;;4992954;28;20664;-68
2021/09/23 07:35:57;;;;;;;19.33;14.10;;;14.30;99.90;;;;;;4981856;28;20052;-68
2021/09/23 07:38:24;;;;;;;17.00;13.27;;;14.60;99.90;;;;;;4991885;28;20109;-68
2021/09/23 07:40:52;;;;;;;15.98;12.18;;;14.80;99.90;;;;;;4996694;28;20058;-68
2021/09/23 07:43:19;;;;;;;16.05;13.02;;;15.00;99.90;;;;;;4999713;28;20058;-68
2021/09/23 07:45:46;;;;;;;15.30;13.38;;;15.20;99.90;;;;;;4998080;28;20736;-68
2021/09/23 07:48:13;;;;;;;18.13;14.15;;;15.30;99.90;;;;;;4990935;28;20081;-68
2021/09/23 07:50:39;;;;;;;16.88;13.88;;;15.40;99.90;;;;;;4961566;28;20121;-68
2021/09/23 07:53:07;;;;;;;15.82;14.15;;;15.40;99.90;;;;;;4989556;28;20054;-69
2021/09/23 07:55:34;;;;;;;15.40;13.90;;;15.50;99.90;;;;;;4982976;28;20037;-70
2021/09/23 07:58:01;;;;;;;16.17;14.25;;;15.60;99.90;;;;;;4998179;28;20053;-69
2021/09/23 08:00:28;;;;;;;16.88;14.88;;;15.60;99.90;;;;;;4979317;28;20394;-68
2021/09/23 08:02:55;;;;;;;20.73;13.38;;;15.60;99.90;;;;;;4992682;28;20050;-70
2021/09/23 08:05:22;;;;;;;16.70;14.80;;;15.70;99.90;;;;;;4999109;28;20054;-69
2021/09/23 08:07:49;;;;;;;15.77;14.15;;;15.70;99.90;;;;;;4997696;28;20207;-69
2021/09/23 08:10:16;;;;;;;14.63;13.38;;;15.90;99.90;;;;;;4987672;28;20048;-70
2021/09/23 08:12:45;;;;;;;15.73;14.23;;;15.90;99.90;;;;;;4980203;28;20061;-69
2021/09/23 08:15:14;;;;;;;15.43;13.77;;;16.00;99.90;;;;;;4964003;28;20053;-69
2021/09/23 08:18:20;;;;;;;15.07;13.37;;;15.90;99.90;;;;;;4937326;28;20101;-68
2021/09/23 08:21:00;;;;;;;16.50;14.88;;;16.10;99.90;;;;;;4958506;28;20074;-68
2021/09/23 08:23:27;;;;;;;15.10;13.80;;;16.30;99.90;;;;;;4973513;28;20054;-69
2021/09/23 08:26:04;;;;;;;15.57;14.23;;;16.40;99.90;;;;;;4993664;28;20056;-69
2021/09/23 08:28:34;;;;;;;15.23;13.63;;;16.40;99.90;;;;;;4978738;28;20117;-69
2021/09/23 08:31:03;;;;;;;16.83;15.40;;;16.50;99.90;;;;;;4969818;28;20346;-69
2021/09/23 08:33:31;;;;;;;14.98;13.57;;;16.50;99.90;;;;;;4999596;28;20497;-68
2021/09/23 08:35:59;;;;;;;15.15;13.90;;;16.40;99.90;;;;;;4983185;28;20061;-69
2021/09/23 08:38:26;;;;;;;17.33;15.57;;;16.60;99.90;;;;;;4998835;28;20058;-69
2021/09/23 08:40:53;;;;;;;17.13;15.68;;;16.70;99.90;;;;;;4981631;28;20301;-70
2021/09/23 08:43:20;;;;;;;17.00;15.52;;;16.80;99.90;;;;;;4982371;28;20601;-70
2021/09/23 08:45:47;;;;;;;16.25;15.05;;;16.70;99.90;;;;;;4998698;28;20050;-70
2021/09/23 08:48:16;;;;;;;18.23;16.38;;;16.80;99.90;;;;;;4991141;28;20055;-71
2021/09/23 08:50:43;;;;;;;16.40;15.02;;;16.80;99.90;;;;;;4994104;28;20042;-71
2021/09/23 08:53:30;;;;;;;18.25;16.63;;;16.70;99.90;;;;;;4985597;28;20046;-69
2021/09/23 08:55:57;;;;;;;16.70;15.40;;;17.00;99.90;;;;;;4998273;28;20046;-70
2021/09/23 08:58:26;;;;;;;16.73;15.10;;;17.10;99.90;;;;;;4977590;28;20053;-69
2021/09/23 09:01:06;;;;;;;16.60;15.25;;;17.20;99.90;;;;;;4988325;28;20053;-69
2021/09/23 09:03:57;;;;;;;16.00;14.65;;;17.30;99.90;;;;;;4972950;28;20050;-69
2021/09/23 09:06:57;;;;;;;16.20;14.68;;;17.20;99.90;;;;;;5000451;28;20362;-68
2021/09/23 09:09:46;;;;;;;15.30;14.13;;;17.00;99.90;;;;;;5000775;28;20053;-69
2021/09/23 09:12:14;;;;;;;15.40;14.20;;;16.90;99.90;;;;;;4969589;28;20563;-69
2021/09/23 09:14:45;;;;;;;15.57;14.35;;;17.10;99.90;;;;;;4964747;28;20038;-70
2021/09/23 09:17:12;;;;;;;15.93;14.52;;;17.30;99.90;;;;;;4982148;28;20132;-70
2021/09/23 09:19:52;;;;;;;16.60;15.30;;;17.40;99.90;;;;;;4981782;28;20077;-69
2021/09/23 09:22:22;;;;;;;16.33;14.95;;;17.50;99.90;;;;;;4986203;28;20073;-68
2021/09/23 09:24:55;;;;;;;17.77;16.38;;;17.70;99.90;;;;;;5002210;28;20104;-70
2021/09/23 09:27:39;;;;;;;16.98;15.68;;;17.60;99.90;;;;;;4998520;28;20058;-69
2021/09/23 09:30:25;;;;;;;18.05;16.30;;;17.70;99.90;;;;;;4984291;28;20058;-69
2021/09/23 09:32:56;;;;;;;;;;;17.90;99.90;;;;;;4982729;28;20050;-69
2021/09/23 09:35:31;;;;;;;15.32;14.10;;;18.00;99.90;;;;;;4960205;28;20010;-69
2021/09/23 09:37:59;;;;;;;16.40;14.60;;;18.00;99.90;;;;;;4965373;28;20054;-69
2021/09/23 09:40:34;;;;;;;15.65;14.35;;;17.90;99.90;;;;;;4980520;28;20511;-69
2021/09/23 09:43:05;;;;;;;15.88;14.45;;;18.00;99.90;;;;;;4985028;28;20053;-68
2021/09/23 09:45:35;;;;;;;16.63;14.93;;;18.20;99.90;;;;;;5001574;28;20048;-70
2021/09/23 09:48:03;;;;;;;17.85;16.08;;;18.60;99.90;;;;;;4996023;28;20133;-70
2021/09/23 09:50:33;;;;;;;16.75;15.15;;;18.50;99.90;;;;;;4971855;28;20142;-71
2021/09/23 09:53:04;;;;;;;16.63;15.15;;;18.50;99.90;;;;;;4963144;28;20056;-71
2021/09/23 09:55:40;;;;;;;16.55;14.95;;;18.50;99.90;;;;;;4985694;28;20797;-69
2021/09/23 09:58:10;;;;;;;16.75;14.52;;;18.40;99.90;;;;;;4982353;28;20148;-70
2021/09/23 10:00:40;;;;;;;16.88;15.27;;;18.60;99.90;;;;;;4969816;28;20049;-71
2021/09/23 10:03:07;;;;;;;16.80;15.27;;;18.60;99.90;;;;;;4984987;28;20057;-69
2021/09/23 10:05:38;;;;;;;15.38;13.88;;;18.50;99.90;;;;;;5000497;28;20050;-70
2021/09/23 10:08:07;;;;;;;17.73;13.73;;;18.50;99.90;;;;;;5000973;28;20108;-70
2021/09/23 10:10:34;;;;;;;16.13;14.65;;;18.40;99.90;;;;;;4995887;28;20054;-69
2021/09/23 10:13:05;;;;;;;17.08;15.15;;;18.40;99.90;;;;;;5000118;28;20053;-73
2021/09/23 10:15:33;;;;;;;16.20;14.80;;;18.30;99.90;;;;;;4968723;28;20074;-68
2021/09/23 10:18:03;;;;;;;16.08;14.65;;;18.40;99.90;;;;;;4981159;28;20520;-70
2021/09/23 10:20:34;;;;;;;16.15;14.98;;;18.60;99.90;;;;;;4987276;28;20054;-69
2021/09/23 10:23:02;;;;;;;16.52;15.23;;;18.70;99.90;;;;;;4968996;28;20050;-71
2021/09/23 10:25:32;;;;;;;16.27;14.77;;;18.70;99.90;;;;;;4978115;28;20450;-68
2021/09/23 10:28:04;;;;;;;16.77;15.07;;;18.80;99.90;;;;;;4981565;28;20054;-71
2021/09/23 10:30:42;;;;;;;14.98;13.90;;;18.90;99.90;;;;;;5004222;28;20046;-69
2021/09/23 10:33:12;;;;;;;15.77;14.27;;;19.00;99.90;;;;;;4999534;28;20062;-70
2021/09/23 10:35:40;;;;;;;16.50;15.25;;;18.80;99.90;;;;;;5001280;28;20600;-70
2021/09/23 10:38:17;;;;;;;16.42;14.95;;;18.60;99.90;;;;;;5001564;28;20546;-71
2021/09/23 10:40:45;;;;;;;16.50;14.93;;;18.40;99.90;;;;;;5000456;28;20058;-70
2021/09/23 10:43:15;;;;;;;15.52;14.25;;;18.10;99.90;;;;;;5000501;28;20168;-71
2021/09/23 10:45:49;;;;;;;15.15;13.90;;;18.10;99.90;;;;;;4982264;28;20054;-69
2021/09/23 10:48:22;;;;;;;15.90;14.70;;;18.40;99.90;;;;;;4978637;28;20049;-69
2021/09/23 10:50:49;;;;;;;15.63;14.57;;;18.60;99.90;;;;;;4983456;28;20138;-71
2021/09/23 10:53:18;;;;;;;18.17;15.57;;;18.70;99.90;;;;;;5000764;28;20041;-71
2021/09/23 10:56:08;;;;;;;16.88;15.52;;;18.80;99.90;;;;;;4987532;28;20070;-69
2021/09/23 10:58:43;;;;;;;15.95;14.80;;;19.10;99.90;;;;;;4991773;28;20093;-70
2021/09/23 11:01:26;;;;;;;18.23;15.65;;;19.30;99.90;;;;;;4990055;28;20077;-70
2021/09/23 11:03:56;;;;;;;16.98;15.73;;;19.60;99.90;;;;;;4998168;28;20054;-69
2021/09/23 11:06:35;;;;;;;17.45;15.90;;;19.60;99.90;;;;;;4982269;28;20058;-70
2021/09/23 11:09:21;;;;;;;15.85;14.75;;;19.50;99.90;;;;;;4994520;28;20285;-70
2021/09/23 11:12:08;;;;;;;16.90;15.40;;;19.20;99.90;;;;;;4996578;28;20057;-70
2021/09/23 11:14:40;;;;;;;16.50;15.05;;;19.10;99.90;;;;;;4983274;28;20049;-70
2021/09/23 11:17:10;;;;;;;17.08;15.73;;;19.00;99.90;;;;;;4997058;28;20050;-70
2021/09/23 11:19:37;;;;;;;17.00;15.40;;;19.00;99.90;;;;;;4991737;28;20125;-68
2021/09/23 11:22:06;;;;;;;16.23;14.82;;;19.10;99.90;;;;;;4996970;28;20074;-71
2021/09/23 11:24:34;;;;;;;17.02;15.73;;;19.00;99.90;;;;;;4980623;28;20057;-70
2021/09/23 11:27:04;;;;;;;16.33;15.13;;;18.80;99.90;;;;;;4997521;28;20042;-70
2021/09/23 11:29:35;;;;;;;16.73;15.20;;;19.00;99.90;;;;;;4985622;28;20133;-69
2021/09/23 11:32:02;;;;;;;16.23;15.02;;;19.00;99.90;;;;;;4972702;28;20199;-69
2021/09/23 11:34:37;;;;;;;16.70;15.18;;;19.00;99.90;;;;;;4995973;28;20050;-68
2021/09/23 11:37:09;;;;;;;16.45;15.05;;;19.30;99.90;;;;;;4968138;28;20042;-68
2021/09/23 11:39:49;;;;;;;15.63;14.52;;;19.70;99.90;;;;;;4981711;28;20069;-70
2021/09/23 11:42:21;;;;;;;16.13;15.02;;;19.90;99.90;;;;;;4981001;28;20049;-71
2021/09/23 11:44:50;;;;;;;15.65;14.57;;;19.90;99.90;;;;;;4981599;28;20439;-70
2021/09/23 11:47:23;;;;;;;16.75;15.25;;;19.70;99.90;;;;;;4963258;28;20521;-71
2021/09/23 11:49:54;;;;;;;16.58;15.10;;;20.00;99.90;;;;;;4962377;28;20046;-70
2021/09/23 11:52:35;;;;;;;15.95;14.80;;;19.60;99.90;;;;;;4961248;28;20039;-72
2021/09/23 11:55:05;;;;;;;14.82;13.73;;;19.50;99.90;;;;;;4986947;28;20062;-70
2021/09/23 11:57:32;;;;;;;15.30;13.77;;;19.60;99.90;;;;;;4977621;28;20042;-69
2021/09/23 12:00:01;;;;;;;14.65;13.55;;;19.70;99.90;;;;;;4961195;28;20117;-71
2021/09/23 12:02:32;;;;;;;15.20;14.20;;;19.60;99.90;;;;;;4980103;28;20046;-71
2021/09/23 12:05:00;;;;;;;15.95;14.57;;;19.60;99.90;;;;;;4978917;28;20375;-69
2021/09/23 12:07:41;;;;;;;16.02;14.27;;;19.60;99.90;;;;;;4961750;28;20046;-72
2021/09/23 12:10:17;;;;;;;17.05;15.85;;;19.70;99.90;;;;;;4972180;28;20050;-70
2021/09/23 12:12:57;;;;;;;16.95;15.65;;;19.70;99.90;;;;;;4998185;28;20134;-71
2021/09/23 12:15:28;;;;;;;16.45;14.85;;;19.80;99.90;;;;;;4997154;28;20058;-71
2021/09/23 12:17:57;;;;;;;16.33;15.23;;;20.00;99.90;;;;;;4992892;28;20495;-69
2021/09/23 12:20:47;;;;;;;16.80;15.70;;;19.80;99.90;;;;;;4989393;28;20057;-69
2021/09/23 12:23:24;;;;;;;17.00;15.48;;;19.90;99.90;;;;;;4977719;28;20134;-68
2021/09/23 12:26:20;;;;;;;16.88;15.55;;;19.70;99.90;;;;;;4978577;28;20054;-68
2021/09/23 12:29:01;;;;;;;16.52;15.40;;;19.80;99.90;;;;;;4984175;28;20241;-69
2021/09/23 12:31:34;;;;;;;16.33;15.25;;;19.90;99.90;;;;;;4993447;28;20104;-69
2021/09/23 12:34:17;;;;;;;17.55;16.05;;;19.70;99.90;;;;;;5000689;28;20049;-70
2021/09/23 12:36:50;;;;;;;16.70;15.35;;;19.70;99.90;;;;;;4979232;28;20053;-69
2021/09/23 12:39:20;;;;;;;18.00;16.38;;;19.80;99.90;;;;;;4992651;28;20054;-69
2021/09/23 12:41:55;;;;;;;16.42;14.98;;;19.70;99.90;;;;;;4963316;28;20585;-68